createdAt,value
2022-10-21T00:00:02.862Z,14.43
2022-10-21T00:05:16.394Z,14.47
2022-10-21T00:10:19.786Z,14.51
2022-10-21T00:15:24.262Z,14.54
2022-10-21T00:20:27.279Z,14.62
2022-10-21T00:25:30.292Z,14.72
2022-10-21T00:30:34.818Z,14.77
2022-10-21T00:35:37.735Z,14.80
2022-10-21T00:40:43.695Z,14.73
2022-10-21T00:45:49.972Z,14.79
2022-10-21T00:50:56.537Z,14.76
2022-10-21T00:56:04.913Z,14.70
2022-10-21T01:01:10.067Z,14.65
2022-10-21T01:06:14.798Z,14.60
2022-10-21T01:11:20.679Z,14.58
2022-10-21T01:16:34.643Z,14.52
2022-10-21T01:21:42.966Z,14.44
2022-10-21T01:27:20.942Z,14.40
2022-10-21T01:32:36.449Z,14.34
2022-10-21T01:37:44.944Z,14.24
2022-10-21T01:42:53.974Z,14.26
2022-10-21T01:48:03.197Z,14.24
2022-10-21T01:53:11.094Z,14.21
2022-10-21T01:58:18.013Z,14.16
2022-10-21T02:03:25.917Z,14.10
2022-10-21T02:08:28.953Z,14.07
2022-10-21T02:13:38.603Z,14.02
2022-10-21T02:18:43.032Z,13.98
2022-10-21T02:23:52.785Z,13.93
2022-10-21T02:28:59.242Z,13.90
2022-10-21T02:34:12.767Z,13.82
2022-10-21T02:39:22.182Z,13.75
2022-10-21T02:44:25.721Z,13.80
2022-10-21T02:49:30.283Z,13.79
2022-10-21T02:54:33.429Z,13.70
2022-10-21T02:59:36.435Z,13.75
2022-10-21T03:04:40.813Z,13.73
2022-10-21T03:09:43.816Z,13.73
2022-10-21T03:14:46.638Z,13.69
2022-10-21T03:19:51.082Z,13.66
2022-10-21T03:24:53.965Z,13.63
2022-10-21T03:29:56.953Z,13.56
2022-10-21T03:35:01.316Z,13.59
2022-10-21T03:40:06.405Z,13.55
2022-10-21T03:45:12.550Z,13.49
2022-10-21T03:50:20.114Z,13.47
2022-10-21T03:55:26.579Z,13.43
2022-10-21T04:00:31.596Z,13.38
2022-10-21T04:05:36.460Z,13.35
2022-10-21T04:10:39.787Z,13.29
2022-10-21T04:15:42.729Z,13.26
2022-10-21T04:20:46.976Z,13.20
2022-10-21T04:25:50.333Z,13.15
2022-10-21T04:30:53.585Z,13.11
2022-10-21T04:35:59.161Z,13.11
2022-10-21T04:41:03.901Z,13.09
2022-10-21T04:46:12.034Z,13.06
2022-10-21T04:51:16.675Z,13.02
2022-10-21T04:56:19.692Z,12.97
2022-10-21T05:01:23.196Z,12.90
2022-10-21T05:06:27.623Z,12.94
2022-10-21T05:11:31.249Z,12.91
2022-10-21T05:16:34.180Z,12.88
2022-10-21T05:21:38.488Z,12.85
2022-10-21T05:26:41.410Z,12.84
2022-10-21T05:31:44.603Z,12.81
2022-10-21T05:36:50.070Z,12.78
2022-10-21T05:41:53.023Z,12.77
2022-10-21T05:46:55.984Z,12.75
2022-10-21T05:52:00.302Z,12.71
2022-10-21T05:57:03.577Z,12.68
2022-10-21T06:02:06.597Z,12.71
2022-10-21T06:07:12.914Z,12.74
2022-10-21T06:12:15.959Z,12.76
2022-10-21T06:17:21.741Z,12.73
2022-10-21T06:22:26.057Z,12.72
2022-10-21T06:27:29.204Z,12.71
2022-10-21T06:32:32.973Z,12.63
2022-10-21T06:37:37.841Z,12.63
2022-10-21T06:42:41.401Z,12.65
2022-10-21T06:47:44.311Z,12.63
2022-10-21T06:52:49.809Z,12.65
2022-10-21T06:57:52.816Z,12.67
2022-10-21T07:02:58.936Z,12.65
2022-10-21T07:08:03.384Z,12.70
2022-10-21T07:13:06.437Z,12.74
2022-10-21T07:18:09.578Z,12.79
2022-10-21T07:23:13.837Z,12.81
2022-10-21T07:28:17.024Z,12.86
2022-10-21T07:33:20.201Z,12.94
2022-10-21T07:38:26.259Z,13.03
2022-10-21T07:43:29.329Z,13.10
2022-10-21T07:48:32.893Z,13.18
2022-10-21T07:53:37.319Z,13.18
2022-10-21T07:58:42.325Z,13.25
2022-10-21T08:03:45.967Z,13.31
2022-10-21T08:08:50.975Z,13.32
2022-10-21T08:13:54.020Z,13.38
2022-10-21T08:18:57.167Z,13.42
2022-10-21T08:24:03.162Z,13.42
2022-10-21T08:29:06.298Z,13.52
2022-10-21T08:34:10.225Z,13.61
2022-10-21T08:39:14.610Z,13.71
2022-10-21T08:44:27.376Z,13.81
2022-10-21T08:49:40.297Z,13.95
2022-10-21T08:54:50.034Z,14.09
2022-10-21T08:59:53.230Z,14.26
2022-10-21T09:05:20.788Z,14.32
2022-10-21T09:10:34.756Z,14.33
2022-10-21T09:15:56.356Z,14.34
2022-10-21T09:21:08.619Z,14.42
2022-10-21T09:27:01.505Z,14.47
2022-10-21T09:32:16.391Z,14.49
2022-10-21T09:37:31.705Z,14.53
2022-10-21T09:42:46.910Z,14.69
2022-10-21T09:47:58.614Z,14.89
2022-10-21T09:53:07.639Z,14.96
2022-10-21T09:58:26.314Z,15.04
2022-10-21T10:03:37.785Z,15.07
2022-10-21T10:09:07.056Z,15.11
2022-10-21T10:14:25.006Z,15.19
2022-10-21T10:19:30.037Z,15.34
2022-10-21T10:24:36.283Z,15.40
2022-10-21T10:29:42.150Z,15.00
2022-10-21T10:34:54.894Z,15.35
2022-10-21T10:40:00.403Z,15.49
2022-10-21T10:45:06.844Z,15.59
2022-10-21T10:50:48.233Z,16.08
2022-10-21T10:55:58.643Z,16.36
2022-10-21T11:01:06.640Z,16.62
2022-10-21T11:06:17.247Z,17.04
2022-10-21T11:11:27.072Z,17.26
2022-10-21T11:16:59.558Z,17.57
2022-10-21T11:22:14.069Z,17.81
2022-10-21T11:27:27.223Z,17.96
2022-10-21T11:32:39.790Z,18.05
2022-10-21T11:37:56.761Z,17.91
2022-10-21T11:43:06.849Z,18.12
2022-10-21T11:48:22.467Z,18.27
2022-10-21T11:53:44.160Z,18.30
2022-10-21T11:58:57.874Z,18.34
2022-10-21T12:04:23.153Z,18.54
2022-10-21T12:09:33.939Z,18.76
2022-10-21T12:14:42.041Z,18.78
2022-10-21T12:19:54.367Z,18.76
2022-10-21T12:25:08.939Z,18.83
2022-10-21T12:30:23.451Z,18.96
2022-10-21T12:35:47.781Z,19.08
2022-10-21T12:41:13.448Z,19.25
2022-10-21T12:46:26.085Z,19.50
2022-10-21T12:51:33.171Z,19.59
2022-10-21T12:56:44.957Z,19.67
2022-10-21T13:02:19.553Z,19.78
2022-10-21T13:08:03.866Z,20.22
2022-10-21T13:13:31.799Z,20.63
2022-10-21T13:18:54.448Z,20.82
2022-10-21T13:23:59.517Z,20.88
2022-10-21T13:29:16.779Z,20.91
2022-10-21T13:34:29.828Z,20.92
2022-10-21T13:39:35.571Z,20.97
2022-10-21T13:44:43.502Z,21.07
2022-10-21T13:49:51.829Z,21.20
2022-10-21T13:54:58.888Z,21.39
2022-10-21T14:00:07.748Z,21.49
2022-10-21T14:05:34.352Z,21.55
2022-10-21T14:10:37.558Z,21.63
2022-10-21T14:15:46.228Z,21.63
2022-10-21T14:20:50.310Z,21.71
2022-10-21T14:25:55.579Z,21.67
2022-10-21T14:31:01.448Z,21.67
2022-10-21T14:36:10.205Z,21.71
2022-10-21T14:41:23.329Z,21.72
2022-10-21T14:46:27.906Z,21.77
2022-10-21T14:51:36.689Z,21.87
2022-10-21T14:56:44.157Z,21.78
2022-10-21T15:01:48.686Z,21.87
2022-10-21T15:07:01.734Z,21.87
2022-10-21T15:12:19.836Z,21.87
2022-10-21T15:17:24.477Z,21.92
2022-10-21T15:22:31.350Z,21.98
2022-10-21T15:27:42.288Z,21.94
2022-10-21T15:32:47.243Z,21.97
2022-10-21T15:37:50.893Z,21.92
2022-10-21T15:42:55.666Z,21.71
2022-10-21T15:48:00.245Z,21.42
2022-10-21T15:53:03.391Z,21.26
2022-10-21T15:58:06.754Z,21.08
2022-10-21T16:03:11.136Z,20.84
2022-10-21T16:08:14.623Z,20.50
2022-10-21T16:13:17.668Z,20.36
2022-10-21T16:18:22.103Z,20.18
2022-10-21T16:23:25.191Z,20.00
2022-10-21T16:28:28.399Z,19.77
2022-10-21T16:33:33.302Z,19.57
2022-10-21T16:38:36.582Z,19.40
2022-10-21T16:43:40.888Z,19.22
2022-10-21T16:48:45.983Z,18.93
2022-10-21T16:53:49.081Z,18.75
2022-10-21T16:58:53.769Z,18.67
2022-10-21T17:03:58.616Z,18.47
2022-10-21T17:09:01.835Z,18.28
2022-10-21T17:14:07.469Z,18.03
2022-10-21T17:19:11.900Z,17.84
2022-10-21T17:24:17.713Z,17.74
2022-10-21T17:29:20.908Z,17.71
2022-10-21T17:34:30.685Z,17.62
2022-10-21T17:39:33.680Z,17.49
2022-10-21T17:44:36.700Z,17.44
2022-10-21T17:49:41.732Z,17.39
2022-10-21T17:54:44.855Z,17.30
2022-10-21T17:59:50.448Z,17.21
2022-10-21T18:04:55.045Z,17.15
2022-10-21T18:09:58.383Z,17.10
2022-10-21T18:15:01.487Z,17.00
2022-10-21T18:20:07.799Z,16.98
2022-10-21T18:25:11.431Z,16.94
2022-10-21T18:30:14.914Z,16.89
2022-10-21T18:35:20.815Z,16.87
2022-10-21T18:40:24.171Z,16.83
2022-10-21T18:45:27.466Z,16.78
2022-10-21T18:50:32.615Z,16.68
2022-10-21T18:55:35.612Z,16.64
2022-10-21T19:00:38.885Z,16.62
2022-10-21T19:05:43.577Z,16.58
2022-10-21T19:10:46.583Z,16.54
2022-10-21T19:15:52.372Z,16.47
2022-10-21T19:20:57.580Z,16.44
2022-10-21T19:26:03.169Z,16.32
2022-10-21T19:31:07.294Z,16.41
2022-10-21T19:36:12.862Z,16.40
2022-10-21T19:41:19.340Z,16.37
2022-10-21T19:46:25.657Z,16.35
2022-10-21T19:51:30.531Z,16.34
2022-10-21T19:56:34.574Z,16.33
2022-10-21T20:01:39.500Z,16.29
2022-10-21T20:06:44.076Z,16.28
2022-10-21T20:11:47.163Z,16.23
2022-10-21T20:16:50.945Z,16.18
2022-10-21T20:21:55.282Z,16.17
2022-10-21T20:27:01.224Z,16.08
2022-10-21T20:32:05.754Z,16.07
2022-10-21T20:37:10.689Z,16.03
2022-10-21T20:42:13.936Z,15.94
2022-10-21T20:47:19.239Z,15.88
2022-10-21T20:52:23.821Z,15.74
2022-10-21T20:57:27.111Z,15.79
2022-10-21T21:02:30.112Z,15.77
2022-10-21T21:07:34.691Z,15.71
2022-10-21T21:12:37.939Z,15.69
2022-10-21T21:17:42.753Z,15.61
2022-10-21T21:22:47.088Z,15.65
2022-10-21T21:27:50.131Z,15.64
2022-10-21T21:32:53.191Z,15.60
2022-10-21T21:37:57.717Z,15.57
2022-10-21T21:43:00.754Z,15.58
2022-10-21T21:48:03.896Z,15.58
2022-10-21T21:53:09.815Z,15.56
2022-10-21T21:58:13.569Z,15.56
2022-10-21T22:03:16.753Z,15.53
2022-10-21T22:08:22.626Z,15.55
2022-10-21T22:13:25.610Z,15.55
2022-10-21T22:18:28.766Z,15.50
2022-10-21T22:23:33.315Z,15.51
2022-10-21T22:28:36.458Z,15.49
2022-10-21T22:33:40.872Z,15.44
2022-10-21T22:38:46.032Z,15.40
2022-10-21T22:43:49.425Z,15.35
2022-10-21T22:48:52.347Z,15.27
2022-10-21T22:53:57.030Z,15.27
2022-10-21T22:59:00.610Z,15.25
2022-10-21T23:04:04.172Z,15.22
2022-10-21T23:09:08.596Z,15.23
2022-10-21T23:14:11.656Z,15.27
2022-10-21T23:19:14.664Z,15.35
2022-10-21T23:24:19.102Z,15.38
2022-10-21T23:29:22.098Z,15.37
2022-10-21T23:34:25.286Z,15.26
2022-10-21T23:39:29.718Z,15.19
2022-10-21T23:44:32.763Z,15.19
2022-10-21T23:49:36.042Z,15.12
2022-10-21T23:54:41.716Z,15.11
2022-10-21T23:59:44.865Z,15.01
